Terminal Aerodrome Forecast
Issued by NWS

Home | Current Version | Previous Version | Text Only | Print | Product List | Glossary On
Versions: 1 2 3 4 5 6 7 8 9 10
647
FTUS44 KSJT 252320
TAFBBD
TAF
KBBD 252320Z 2600/2624 16011KT P6SM BKN250
     FM261200 29011KT P6SM SCT250
     FM261400 30015G22KT P6SM SCT250
      AMD NOT SKED=

USA.gov is the U.S. government's official web portal to all federal, state and local government web resources and services.